Time;durP1;ratioP1;P1;durP2;ratioP2;P2;SDS_P1;SDS_P2;PMS_P1;PMS_P2;Temp;Humidity;BMP_temperature;BMP_pressure;BME280_temperature;BME280_humidity;BME280_pressure;Samples;Min_cycle;Max_cycle;Signal;HPM_P1;HPM_P2
2023/06/26 00:00:47;;;;;;;19.52;12.40;;;;;;;13.85;100.00;93167.50;2044580;28;20419;-83
2023/06/26 00:01:52;;;;;;;19.55;12.35;;;;;;;13.91;100.00;93173.06;2044716;28;20090;-82
2023/06/26 00:02:58;;;;;;;20.65;12.38;;;;;;;13.82;100.00;93168.38;2051869;28;20033;-82
2023/06/26 00:04:04;;;;;;;23.33;12.23;;;;;;;13.81;100.00;93176.88;2041065;29;20555;-81
2023/06/26 00:05:13;;;;;;;19.00;12.45;;;;;;;13.77;100.00;93181.59;2050205;28;20027;-86
2023/06/26 00:06:19;;;;;;;15.00;11.23;;;;;;;13.84;100.00;93176.75;2049501;28;20055;-81
2023/06/26 00:07:27;;;;;;;15.35;11.20;;;;;;;13.91;100.00;93170.38;2045380;29;20026;-82
2023/06/26 00:08:29;;;;;;;18.17;11.20;;;;;;;13.79;100.00;93173.88;2052273;28;20031;-85
2023/06/26 00:09:36;;;;;;;17.42;12.63;;;;;;;13.81;100.00;93172.25;2050310;28;20027;-83
2023/06/26 00:10:41;;;;;;;18.05;12.65;;;;;;;13.73;100.00;93167.53;2050756;28;20023;-82
2023/06/26 00:11:46;;;;;;;17.45;12.23;;;;;;;13.72;100.00;93171.41;2051209;28;20161;-81
2023/06/26 00:12:52;;;;;;;17.00;11.85;;;;;;;13.69;100.00;93167.66;2066349;28;20022;-84
2023/06/26 00:14:00;;;;;;;20.10;13.02;;;;;;;13.71;100.00;93173.34;2057925;28;20042;-83
2023/06/26 00:15:05;;;;;;;15.80;11.73;;;;;;;13.69;100.00;93173.03;2058948;28;20054;-82
2023/06/26 00:16:11;;;;;;;18.77;12.20;;;;;;;13.60;100.00;93173.69;2056167;28;20035;-84
2023/06/26 00:17:19;;;;;;;17.17;12.02;;;;;;;13.70;100.00;93169.16;2052357;28;20112;-82
2023/06/26 00:18:27;;;;;;;17.67;11.77;;;;;;;13.70;100.00;93173.78;2051273;28;20574;-83
2023/06/26 00:19:30;;;;;;;19.15;12.73;;;;;;;13.65;100.00;93171.63;2051613;28;20058;-82
2023/06/26 00:20:33;;;;;;;16.15;11.18;;;;;;;13.68;100.00;93173.47;2050642;28;20490;-85
2023/06/26 00:21:39;;;;;;;15.65;11.48;;;;;;;13.54;100.00;93170.06;2043317;28;20083;-81
2023/06/26 00:22:45;;;;;;;19.38;13.07;;;;;;;13.50;100.00;93169.41;2043487;28;20284;-83
2023/06/26 00:23:50;;;;;;;17.85;11.77;;;;;;;13.57;100.00;93171.88;2043989;28;20034;-85
2023/06/26 00:24:57;;;;;;;18.02;12.20;;;;;;;13.48;100.00;93168.38;2043466;28;20019;-82
2023/06/26 00:26:03;;;;;;;18.10;11.75;;;;;;;13.53;100.00;93171.25;2050139;28;20106;-83
2023/06/26 00:27:11;;;;;;;18.13;12.18;;;;;;;13.50;100.00;93174.03;2043668;28;20035;-81
2023/06/26 00:28:20;;;;;;;14.95;11.27;;;;;;;13.51;100.00;93165.53;2036285;29;20032;-82
2023/06/26 00:29:29;;;;;;;19.60;12.82;;;;;;;13.45;100.00;93166.53;2040180;28;20054;-81
2023/06/26 00:30:36;;;;;;;18.67;12.23;;;;;;;13.48;100.00;93168.38;2059135;28;20069;-84
2023/06/26 00:31:48;;;;;;;19.85;12.73;;;;;;;13.43;100.00;93177.69;2057777;28;20023;-85
2023/06/26 00:32:52;;;;;;;19.25;12.95;;;;;;;13.40;100.00;93175.13;2041170;28;20027;-83
2023/06/26 00:33:57;;;;;;;17.70;12.07;;;;;;;13.34;100.00;93169.53;2043182;29;20028;-81
2023/06/26 00:35:02;;;;;;;17.90;12.20;;;;;;;13.33;100.00;93171.47;2036117;29;20024;-83
2023/06/26 00:36:05;;;;;;;17.25;12.13;;;;;;;13.41;100.00;93177.38;2049718;28;20046;-81
2023/06/26 00:37:11;;;;;;;18.27;13.23;;;;;;;13.31;100.00;93173.09;2051276;28;20269;-85
2023/06/26 00:38:15;;;;;;;19.65;13.23;;;;;;;13.27;100.00;93159.78;2051368;28;20455;-84
2023/06/26 00:39:20;;;;;;;19.85;12.98;;;;;;;13.22;100.00;93171.06;2050927;28;20066;-84
2023/06/26 00:40:28;;;;;;;16.23;12.45;;;;;;;13.25;100.00;93169.44;2058535;28;20484;-84
2023/06/26 00:41:39;;;;;;;17.80;11.73;;;;;;;13.24;100.00;93168.69;2056500;28;20069;-84
2023/06/26 00:42:48;;;;;;;21.30;12.30;;;;;;;13.29;100.00;93170.09;2058240;28;20462;-82
2023/06/26 00:43:58;;;;;;;19.90;12.50;;;;;;;13.29;100.00;93180.81;2060523;28;20057;-82
2023/06/26 00:45:07;;;;;;;18.17;12.93;;;;;;;13.29;100.00;93173.53;2053661;28;20141;-83
2023/06/26 00:46:16;;;;;;;17.60;12.57;;;;;;;13.26;100.00;93179.03;2050771;28;20050;-82
2023/06/26 00:47:22;;;;;;;17.90;12.65;;;;;;;13.23;100.00;93171.81;2042873;28;20028;-85
2023/06/26 00:48:29;;;;;;;19.48;12.75;;;;;;;13.27;100.00;93172.47;2050339;28;20094;-83
2023/06/26 00:49:34;;;;;;;18.95;13.25;;;;;;;13.27;100.00;93169.78;2062611;28;20033;-83
2023/06/26 00:50:44;;;;;;;19.40;13.38;;;;;;;13.16;100.00;93169.31;2049710;28;20510;-83
2023/06/26 00:51:50;;;;;;;19.10;12.30;;;;;;;13.17;100.00;93166.22;2051416;28;20419;-84
2023/06/26 00:53:00;;;;;;;16.55;12.68;;;;;;;13.10;100.00;93172.53;2044245;29;20497;-84
2023/06/26 00:54:09;;;;;;;18.63;12.63;;;;;;;13.15;100.00;93165.88;2043959;28;20027;-83
2023/06/26 00:55:16;;;;;;;20.83;12.80;;;;;;;13.16;100.00;93167.38;2041961;29;20040;-82
2023/06/26 00:56:26;;;;;;;18.80;13.32;;;;;;;13.18;100.00;93170.41;2047302;28;20031;-82
2023/06/26 00:57:36;;;;;;;18.45;12.70;;;;;;;13.18;100.00;93164.28;2056430;28;20467;-83
2023/06/26 00:58:41;;;;;;;19.55;12.88;;;;;;;13.16;100.00;93167.38;2049443;28;20031;-84
2023/06/26 00:59:46;;;;;;;19.98;12.27;;;;;;;13.14;100.00;93167.06;2049923;28;20034;-82
2023/06/26 01:00:57;;;;;;;17.95;13.20;;;;;;;13.16;100.00;93164.69;2052732;28;20612;-81
2023/06/26 01:02:06;;;;;;;18.77;13.20;;;;;;;13.10;100.00;93163.75;2049709;28;20519;-83
2023/06/26 01:03:15;;;;;;;18.67;12.77;;;;;;;13.10;100.00;93167.19;2041694;29;20051;-84
2023/06/26 01:04:27;;;;;;;19.40;13.05;;;;;;;13.07;100.00;93168.03;2046807;28;20110;-83
2023/06/26 01:05:36;;;;;;;20.08;12.75;;;;;;;13.04;100.00;93163.53;2050455;28;20114;-82
2023/06/26 01:06:48;;;;;;;24.77;13.25;;;;;;;12.94;100.00;93174.56;2051051;28;20031;-82
2023/06/26 01:07:59;;;;;;;22.25;13.15;;;;;;;12.96;100.00;93170.28;2042704;29;20369;-81
2023/06/26 01:09:10;;;;;;;22.50;12.73;;;;;;;12.97;100.00;93171.03;2038185;28;20031;-82
2023/06/26 01:10:16;;;;;;;19.80;12.35;;;;;;;12.96;100.00;93172.97;2051162;28;20062;-84
2023/06/26 01:11:24;;;;;;;17.58;12.45;;;;;;;12.99;100.00;93166.00;2054099;28;20027;-82
2023/06/26 01:12:33;;;;;;;23.00;11.75;;;;;;;12.99;100.00;93168.66;2049335;28;20028;-85
2023/06/26 01:13:44;;;;;;;19.90;12.43;;;;;;;12.97;100.00;93171.03;2043328;28;20039;-82
2023/06/26 01:14:51;;;;;;;18.92;12.38;;;;;;;12.96;100.00;93172.97;2044147;28;20034;-81
2023/06/26 01:15:56;;;;;;;20.63;13.50;;;;;;;12.96;100.00;93172.97;2043278;28;20027;-82
2023/06/26 01:17:07;;;;;;;16.30;11.40;;;;;;;12.87;100.00;93166.75;2042663;28;20035;-83
2023/06/26 01:18:15;;;;;;;17.88;12.02;;;;;;;12.89;100.00;93172.44;2050066;28;20027;-81
2023/06/26 01:19:30;;;;;;;18.30;12.70;;;;;;;12.91;100.00;93173.53;2043819;28;20032;-82
2023/06/26 01:20:43;;;;;;;22.40;13.48;;;;;;;12.82;100.00;93166.09;2053537;28;20038;-84
2023/06/26 01:21:57;;;;;;;18.42;11.98;;;;;;;12.84;100.00;93168.34;2057960;28;20031;-81
2023/06/26 01:23:25;;;;;;;21.38;13.13;;;;;;;12.92;100.00;93163.53;2049735;28;20071;-83
2023/06/26 01:24:41;;;;;;;20.48;12.90;;;;;;;12.91;100.00;93168.16;2058986;28;20026;-82
2023/06/26 01:26:15;;;;;;;20.40;12.40;;;;;;;12.95;100.00;93166.13;2045359;28;20078;-83
2023/06/26 01:27:26;;;;;;;18.67;12.27;;;;;;;12.90;100.00;93160.50;2049306;28;20018;-81
2023/06/26 01:28:37;;;;;;;18.58;11.82;;;;;;;12.89;100.00;93161.69;2042019;29;20031;-84
2023/06/26 01:29:48;;;;;;;20.48;12.77;;;;;;;12.89;100.00;93161.69;2041523;28;20134;-83
2023/06/26 01:31:00;;;;;;;17.92;12.82;;;;;;;12.86;100.00;93165.97;2057008;28;20027;-85
2023/06/26 01:32:11;;;;;;;17.58;11.75;;;;;;;12.88;100.00;93169.00;2056471;28;20026;-84
2023/06/26 01:33:19;;;;;;;18.58;12.90;;;;;;;12.84;100.00;93160.31;2047464;28;20055;-85
2023/06/26 01:34:29;;;;;;;25.75;13.20;;;;;;;12.78;100.00;93162.03;2054222;28;20591;-82
2023/06/26 01:35:42;;;;;;;18.38;12.60;;;;;;;12.77;100.00;93163.94;2048405;28;20038;-82
2023/06/26 01:36:51;;;;;;;22.50;13.05;;;;;;;12.73;100.00;93162.53;2044273;28;20114;-84
2023/06/26 01:38:19;;;;;;;19.95;12.38;;;;;;;12.78;100.00;93154.72;2058051;28;20033;-83
2023/06/26 01:39:29;;;;;;;20.30;12.57;;;;;;;12.75;100.00;93160.94;2064977;28;20343;-81
2023/06/26 01:40:39;;;;;;;21.80;12.68;;;;;;;12.69;100.00;93154.63;2064194;28;20085;-82
2023/06/26 01:41:50;;;;;;;20.55;13.13;;;;;;;12.76;100.00;93153.66;2057839;28;20086;-83
2023/06/26 01:43:00;;;;;;;19.40;11.93;;;;;;;12.72;100.00;93156.44;2046484;28;20047;-83
2023/06/26 01:44:15;;;;;;;17.58;11.80;;;;;;;12.72;100.00;93161.78;2051223;28;20031;-83
2023/06/26 01:45:32;;;;;;;17.90;12.75;;;;;;;12.76;100.00;93154.38;2050505;28;20031;-82
2023/06/26 01:46:58;;;;;;;19.60;12.18;;;;;;;12.69;100.00;93153.88;2045324;28;20083;-83
2023/06/26 01:48:08;;;;;;;21.85;12.90;;;;;;;12.70;100.00;93155.38;2047217;28;20606;-85
2023/06/26 01:49:25;;;;;;;;;;;;;;;12.77;100.00;93147.84;2051745;28;20058;-82
2023/06/26 01:50:45;;;;;;;18.60;12.50;;;;;;;12.76;100.00;93148.28;2057172;28;19921;-82
2023/06/26 01:52:10;;;;;;;20.43;12.40;;;;;;;12.73;100.00;93146.44;2047384;28;20058;-83
2023/06/26 01:53:26;;;;;;;20.15;12.15;;;;;;;12.66;100.00;93139.38;2048113;28;20454;-84
2023/06/26 01:54:40;;;;;;;19.17;12.27;;;;;;;12.66;100.00;93152.03;2048363;28;20031;-82
2023/06/26 01:55:55;;;;;;;22.42;12.85;;;;;;;12.60;100.00;93147.22;2043148;28;20178;-84
2023/06/26 01:56:57;;;;;;;19.42;13.02;;;;;;;12.53;100.00;93147.41;2051359;28;20558;-83
2023/06/26 01:57:59;;;;;;;19.27;12.13;;;;;;;12.59;100.00;93151.03;2063679;28;20032;-82
2023/06/26 01:59:01;;;;;;;16.48;11.40;;;;;;;12.66;100.00;93154.72;2056253;28;20407;-83
2023/06/26 02:00:03;;;;;;;20.60;11.82;;;;;;;12.59;100.00;93147.63;2048355;28;20027;-82
2023/06/26 02:01:04;;;;;;;19.05;12.57;;;;;;;12.54;100.00;93154.25;2048274;28;20468;-83
2023/06/26 02:02:08;;;;;;;20.13;12.73;;;;;;;12.53;100.00;93160.06;2056206;28;20118;-84
2023/06/26 02:03:09;;;;;;;18.13;11.63;;;;;;;12.47;100.00;93153.72;2040506;28;20091;-82
2023/06/26 02:04:10;;;;;;;19.92;12.90;;;;;;;12.52;100.00;93148.59;2057119;28;20081;-82
2023/06/26 02:05:12;;;;;;;18.73;12.10;;;;;;;12.51;100.00;93146.31;2055874;28;20773;-82
2023/06/26 02:06:13;;;;;;;18.27;12.48;;;;;;;12.45;100.00;93151.47;2052346;28;20235;-84
2023/06/26 02:07:15;;;;;;;22.27;13.10;;;;;;;12.47;100.00;93143.75;2048014;29;20030;-85
2023/06/26 02:08:16;;;;;;;25.45;12.98;;;;;;;12.47;100.00;93154.47;2044346;28;20035;-83
2023/06/26 02:09:17;;;;;;;20.30;11.77;;;;;;;12.51;100.00;93155.13;2063744;28;20033;-85
2023/06/26 02:10:18;;;;;;;20.67;13.57;;;;;;;12.46;100.00;93147.59;2063949;28;20058;-82
2023/06/26 02:11:19;;;;;;;20.65;12.40;;;;;;;12.49;100.00;93154.78;2055359;28;20023;-85
2023/06/26 02:12:20;;;;;;;19.35;12.57;;;;;;;12.59;100.00;93155.66;2063075;28;20025;-82
2023/06/26 02:13:22;;;;;;;21.42;13.43;;;;;;;12.57;100.00;93150.72;2055705;28;20109;-84
2023/06/26 02:14:28;;;;;;;21.35;13.18;;;;;;;12.59;100.00;93163.69;2040120;28;20030;-82
2023/06/26 02:15:31;;;;;;;21.20;13.75;;;;;;;12.57;100.00;93149.97;2040526;28;20436;-82
2023/06/26 02:16:33;;;;;;;22.58;14.18;;;;;;;12.57;100.00;93158.03;2040379;28;20043;-83
2023/06/26 02:17:35;;;;;;;22.52;13.50;;;;;;;12.54;100.00;93154.25;2047817;28;20031;-83
2023/06/26 02:18:36;;;;;;;24.25;14.00;;;;;;;12.52;100.00;93155.88;2055979;28;20061;-81
2023/06/26 02:22:01;;;;;;;24.13;14.57;;;;;;;12.54;100.00;93156.19;2133006;27;20597;-73
2023/06/26 02:23:54;;;;;;;;;;;;;;;;;;;;;
2023/06/26 02:25:12;;;;;;;21.67;13.82;;;;;;;12.48;100.00;93157.91;2119743;27;20118;-74
2023/06/26 02:26:39;;;;;;;21.63;14.15;;;;;;;12.50;100.00;93153.59;2118881;27;20478;-74
2023/06/26 02:28:06;;;;;;;24.20;14.40;;;;;;;12.51;100.00;93157.81;2112937;27;20100;-74
2023/06/26 02:29:13;;;;;;;24.00;15.00;;;;;;;12.44;100.00;93149.22;2120162;27;20134;-74
2023/06/26 02:30:29;;;;;;;22.40;13.80;;;;;;;12.48;100.00;93155.22;2122771;27;20030;-74
2023/06/26 02:31:45;;;;;;;22.00;15.15;;;;;;;12.43;100.00;93153.81;2126117;27;20452;-74
2023/06/26 02:33:14;;;;;;;24.15;14.52;;;;;;;12.44;100.00;93154.56;2125791;27;20031;-74
2023/06/26 02:34:27;;;;;;;25.00;14.60;;;;;;;12.46;100.00;93152.94;2124971;27;20117;-74
2023/06/26 02:35:45;;;;;;;24.80;13.82;;;;;;;12.35;100.00;93153.25;2118744;28;20036;-73
2023/06/26 02:36:55;;;;;;;22.00;15.15;;;;;;;12.30;100.00;93150.38;2114851;27;20110;-73
2023/06/26 02:37:58;;;;;;;23.00;15.55;;;;;;;12.35;100.00;93155.94;2108692;28;20696;-73
2023/06/26 02:39:14;;;;;;;23.00;14.43;;;;;;;12.41;100.00;93158.84;2110400;27;20028;-73
2023/06/26 02:40:15;;;;;;;25.60;14.88;;;;;;;12.40;100.00;93159.28;2120064;27;20038;-74
2023/06/26 02:41:22;;;;;;;20.80;13.85;;;;;;;12.37;100.00;93160.88;2124175;27;20525;-73
2023/06/26 02:42:23;;;;;;;25.13;15.48;;;;;;;12.37;100.00;93168.91;2124089;27;20042;-73
2023/06/26 02:43:24;;;;;;;23.25;15.07;;;;;;;12.31;100.00;93165.25;2123793;27;20450;-74
2023/06/26 02:44:25;;;;;;;23.83;15.02;;;;;;;12.33;100.00;93163.66;2117786;27;20024;-73
2023/06/26 02:45:36;;;;;;;23.75;14.60;;;;;;;12.32;100.00;93161.41;2121398;27;20073;-73
2023/06/26 02:46:49;;;;;;;23.33;14.70;;;;;;;12.28;100.00;93158.81;2116718;28;20502;-73
2023/06/26 02:48:02;;;;;;;20.48;13.85;;;;;;;12.24;100.00;93160.84;2109438;28;20465;-74
2023/06/26 02:49:13;;;;;;;24.52;15.32;;;;;;;12.28;100.00;93155.38;2110029;27;20044;-74
2023/06/26 02:50:23;;;;;;;22.30;14.07;;;;;;;12.28;100.00;93158.81;2120481;27;20847;-73
2023/06/26 02:51:36;;;;;;;21.20;14.73;;;;;;;12.23;100.00;93159.34;2123603;27;20022;-74
2023/06/26 02:53:00;;;;;;;22.27;14.70;;;;;;;12.23;100.00;93163.94;2111185;27;20097;-74
2023/06/26 02:54:10;;;;;;;26.92;14.80;;;;;;;12.27;100.00;93161.94;2108366;28;20028;-74
2023/06/26 02:55:17;;;;;;;21.90;13.82;;;;;;;12.27;100.00;93161.94;2100966;28;20029;-74
2023/06/26 02:56:21;;;;;;;20.80;14.25;;;;;;;12.27;100.00;93159.25;2106726;27;20599;-73
2023/06/26 02:57:25;;;;;;;23.48;15.65;;;;;;;12.16;100.00;93159.56;2106975;28;20032;-73
2023/06/26 02:58:27;;;;;;;20.40;14.25;;;;;;;12.21;100.00;93164.38;2108956;28;20032;-73
2023/06/26 02:59:36;;;;;;;22.65;14.18;;;;;;;12.20;100.00;93159.44;2097642;28;20052;-75
2023/06/26 03:00:41;;;;;;;21.17;14.13;;;;;;;12.17;100.00;93163.72;2113596;28;20046;-73
2023/06/26 03:01:48;;;;;;;20.42;13.70;;;;;;;12.10;100.00;93161.97;2120826;27;20055;-74
2023/06/26 03:02:50;;;;;;;27.52;14.15;;;;;;;12.12;100.00;93160.81;2110568;28;20111;-74
2023/06/26 03:03:52;;;;;;;24.95;14.07;;;;;;;12.06;100.00;93164.00;2112762;28;20028;-74
2023/06/26 03:04:53;;;;;;;25.60;14.27;;;;;;;12.13;100.00;93162.31;2126572;27;20111;-74
2023/06/26 03:05:54;;;;;;;23.33;15.20;;;;;;;12.09;100.00;93160.47;2123097;27;20023;-74
2023/06/26 03:06:56;;;;;;;24.58;14.95;;;;;;;12.09;100.00;93160.47;2115618;27;20047;-74
2023/06/26 03:07:57;;;;;;;29.10;14.68;;;;;;;12.06;100.00;93161.31;2126425;27;20043;-73
2023/06/26 03:08:59;;;;;;;23.80;14.02;;;;;;;12.10;100.00;93159.28;2114340;28;20822;-74
2023/06/26 03:10:00;;;;;;;26.80;15.68;;;;;;;12.14;100.00;93166.50;2115651;28;20035;-73
2023/06/26 03:11:01;;;;;;;24.02;14.88;;;;;;;12.09;100.00;93157.81;2125779;27;20023;-74
2023/06/26 03:12:02;;;;;;;23.77;14.88;;;;;;;12.12;100.00;93163.50;2106816;28;20434;-73
2023/06/26 03:13:03;;;;;;;22.67;13.85;;;;;;;12.08;100.00;93160.91;2107413;28;20035;-74
2023/06/26 03:14:13;;;;;;;25.15;14.38;;;;;;;11.94;100.00;93167.41;2110301;28;20031;-74
2023/06/26 03:15:29;;;;;;;24.08;14.18;;;;;;;12.00;100.00;93159.59;2109308;27;20058;-74
2023/06/26 03:16:34;;;;;;;20.90;14.20;;;;;;;11.95;100.00;93160.88;2115157;28;20056;-74
2023/06/26 03:17:41;;;;;;;22.95;13.80;;;;;;;11.98;100.00;93162.69;2126254;27;20034;-74
2023/06/26 03:18:47;;;;;;;22.70;13.85;;;;;;;12.01;100.00;93161.84;2110699;28;20483;-74
2023/06/26 03:19:54;;;;;;;21.75;14.05;;;;;;;11.96;100.00;93161.63;2115507;27;20023;-75
2023/06/26 03:21:10;;;;;;;22.30;14.50;;;;;;;12.05;100.00;93162.50;2115746;28;20093;-75
2023/06/26 03:22:16;;;;;;;23.33;13.52;;;;;;;12.01;100.00;93163.78;2102631;28;20039;-75
2023/06/26 03:23:26;;;;;;;21.90;13.77;;;;;;;12.04;100.00;93160.25;2103353;28;20044;-74
2023/06/26 03:24:37;;;;;;;22.63;13.93;;;;;;;12.02;100.00;93165.28;2108842;27;20027;-74
2023/06/26 03:25:52;;;;;;;27.05;14.48;;;;;;;12.03;100.00;93159.50;2111356;28;20036;-74
2023/06/26 03:26:58;;;;;;;26.35;14.27;;;;;;;12.02;100.00;93165.28;2110297;28;20034;-74
2023/06/26 03:28:16;;;;;;;21.88;14.43;;;;;;;12.02;100.00;93168.69;2105666;28;20608;-75
2023/06/26 03:29:44;;;;;;;23.17;14.60;;;;;;;12.04;100.00;93168.28;2107530;28;20048;-75
2023/06/26 03:31:11;;;;;;;;;;;;;;;;;;;;;
2023/06/26 03:32:59;;;;;;;25.48;14.93;;;;;;;11.95;100.00;93160.88;2122134;27;20030;-77
2023/06/26 03:34:09;;;;;;;22.60;14.23;;;;;;;12.00;100.00;93163.03;2114538;27;20417;-74
2023/06/26 03:35:24;;;;;;;23.65;13.80;;;;;;;12.00;100.00;93160.34;2119475;27;20165;-74
2023/06/26 03:36:29;;;;;;;22.67;14.50;;;;;;;11.96;100.00;93164.28;2109784;28;20023;-74
2023/06/26 03:37:36;;;;;;;27.88;14.85;;;;;;;12.02;100.00;93170.63;2100371;28;20024;-74
2023/06/26 03:38:43;;;;;;;22.10;14.20;;;;;;;12.03;100.00;93164.88;2116720;27;20460;-74
2023/06/26 03:39:56;;;;;;;25.10;14.60;;;;;;;11.97;100.00;93168.47;2115235;27;20015;-74
2023/06/26 03:41:16;;;;;;;22.25;13.98;;;;;;;11.97;100.00;93174.56;2119876;27;20101;-73
2023/06/26 03:48:24;;;;;;;24.85;14.68;;;;;;;12.12;100.00;93166.19;2063299;28;20133;-76
2023/06/26 03:52:54;;;;;;;;;;;;;;;;;;;;;
2023/06/26 03:53:58;;;;;;;;;;;;;;;;;;;;;
2023/06/26 04:01:02;;;;;;;25.33;15.10;;;;;;;12.15;100.00;93181.41;2080014;28;20029;-76
2023/06/26 04:08:08;;;;;;;;;;;;;;;;;;;;;
2023/06/26 04:12:19;;;;;;;23.73;15.68;;;;;;;12.19;100.00;93179.38;2034673;29;20075;-75
2023/06/26 04:13:46;;;;;;;29.23;16.00;;;;;;;12.22;100.00;93173.91;2038170;28;20094;-74
2023/06/26 04:15:18;;;;;;;32.28;16.35;;;;;;;12.25;100.00;93183.81;2069293;28;20041;-74
2023/06/26 04:16:35;;;;;;;26.92;16.38;;;;;;;12.32;100.00;93178.22;2065384;28;20081;-75
2023/06/26 04:17:59;;;;;;;29.90;17.42;;;;;;;12.29;100.00;93183.69;2067525;28;20041;-75
2023/06/26 04:19:09;;;;;;;30.90;17.63;;;;;;;12.28;100.00;93174.16;2098358;27;20073;-75
2023/06/26 04:20:20;;;;;;;29.02;16.83;;;;;;;12.41;100.00;93174.19;2106518;27;20027;-75
2023/06/26 04:21:40;;;;;;;;;;;;;;;12.46;100.00;93176.34;2102054;28;20047;-76
2023/06/26 04:23:04;;;;;;;26.75;16.23;;;;;;;12.53;100.00;93176.91;2105605;28;19920;-76
2023/06/26 04:24:33;;;;;;;24.77;14.88;;;;;;;12.50;100.00;93177.00;2105891;27;20540;-75
2023/06/26 04:30:12;;;;;;;25.13;14.80;;;;;;;12.63;100.00;93182.38;2098300;28;20130;-78
2023/06/26 04:31:48;;;;;;;21.45;14.55;;;;;;;12.63;100.00;93185.06;2101526;27;20047;-76
2023/06/26 04:33:59;;;;;;;22.92;14.30;;;;;;;12.70;100.00;93184.88;2104384;28;20036;-75
2023/06/26 04:40:32;;;;;;;18.98;12.38;;;;;;;12.95;100.00;93187.59;2005656;29;20513;-74
2023/06/26 04:45:03;;;;;;;;;;;;;;;;;;;;;
2023/06/26 05:34:34;;;;;;;11.75;7.43;;;;;;;14.56;100.00;93174.31;1950287;30;20044;-75
2023/06/26 05:41:00;;;;;;;10.48;8.20;;;;;;;14.93;100.00;93182.59;1969933;29;20773;-77
2023/06/26 05:43:04;;;;;;;10.15;8.15;;;;;;;15.07;100.00;93177.44;1988142;29;20107;-75
2023/06/26 05:44:38;;;;;;;8.98;8.07;;;;;;;15.15;100.00;93174.47;1963893;30;20043;-74
2023/06/26 05:46:22;;;;;;;10.73;7.80;;;;;;;15.19;100.00;93169.69;1979512;29;20085;-74
2023/06/26 05:48:07;;;;;;;10.05;8.45;;;;;;;15.27;100.00;93170.91;1999329;29;20134;-74
2023/06/26 05:54:28;;;;;;;;;;;;;;;;;;;;;
2023/06/26 06:03:35;;;;;;;17.98;8.73;;;;;;;16.13;100.00;93168.25;2047747;28;20873;-75
2023/06/26 06:11:12;;;;;;;16.13;9.65;;;;;;;16.68;100.00;93164.72;1999904;29;20082;-75
2023/06/26 06:44:21;;;;;;;15.65;9.52;;;;;;;19.91;100.00;93150.88;2583871;22;19920;-84
2023/06/26 06:45:31;;;;;;;15.90;10.35;;;;;;;19.91;100.00;93157.06;2559826;23;20059;-83
2023/06/26 06:46:32;;;;;;;27.55;11.80;;;;;;;19.85;100.00;93153.53;2539367;23;20025;-84
2023/06/26 06:47:33;;;;;;;14.00;10.45;;;;;;;20.23;100.00;93157.19;2548486;23;20013;-83
2023/06/26 06:48:35;;;;;;;15.50;10.07;;;;;;;20.54;100.00;93154.56;2547987;23;20033;-84
2023/06/26 06:49:36;;;;;;;14.35;10.27;;;;;;;20.92;100.00;93155.41;2535739;23;20017;-83
2023/06/26 06:50:37;;;;;;;14.90;10.57;;;;;;;21.22;100.00;93158.63;2535675;23;20006;-83
2023/06/26 06:51:38;;;;;;;13.40;9.95;;;;;;;21.41;100.00;93152.84;2535569;23;20078;-84
2023/06/26 06:52:40;;;;;;;13.32;9.48;;;;;;;21.29;100.00;93149.28;2535749;23;20488;-84
2023/06/26 06:53:41;;;;;;;16.00;10.55;;;;;;;21.20;100.00;93157.63;2535705;23;20563;-82
2023/06/26 06:54:58;;;;;;;19.13;10.82;;;;;;;21.11;100.00;93155.81;2548447;23;20005;-83
2023/06/26 06:55:59;;;;;;;18.98;11.25;;;;;;;21.08;100.00;93149.38;2560084;23;20013;-83
2023/06/26 06:57:00;;;;;;;18.65;10.98;;;;;;;21.07;100.00;93150.63;2536239;23;20001;-84
2023/06/26 06:58:01;;;;;;;15.73;11.65;;;;;;;21.57;100.00;93158.41;2560820;23;20005;-82
2023/06/26 06:59:02;;;;;;;20.42;11.18;;;;;;;21.66;96.60;93146.59;2561458;23;20028;-82
2023/06/26 07:00:08;;;;;;;17.55;11.02;;;;;;;21.98;94.56;93149.94;2535935;23;20084;-84
2023/06/26 07:01:09;;;;;;;16.13;11.40;;;;;;;21.93;100.00;93150.66;2561242;23;20489;-85
2023/06/26 07:02:14;;;;;;;15.23;10.52;;;;;;;21.74;100.00;93152.31;2560123;23;20071;-84
2023/06/26 07:03:15;;;;;;;19.15;11.18;;;;;;;21.71;100.00;93150.56;2538379;23;20005;-82
2023/06/26 07:04:16;;;;;;;19.63;11.43;;;;;;;21.75;100.00;93156.53;2549599;23;20020;-82
2023/06/26 07:05:17;;;;;;;17.90;11.45;;;;;;;21.89;100.00;93163.75;2548808;23;20020;-85
2023/06/26 07:06:18;;;;;;;17.17;11.73;;;;;;;22.01;100.00;93154.44;2560977;23;20005;-84
2023/06/26 07:07:21;;;;;;;19.08;11.65;;;;;;;22.31;88.46;93156.81;2560397;23;20005;-83
2023/06/26 07:08:22;;;;;;;18.60;11.50;;;;;;;22.19;90.68;93153.28;2536691;23;20013;-84
2023/06/26 07:09:24;;;;;;;18.48;11.00;;;;;;;22.16;88.66;93148.06;2548453;23;20028;-84
2023/06/26 07:10:26;;;;;;;17.35;11.07;;;;;;;22.05;95.04;93160.38;2548088;23;20162;-84
2023/06/26 07:11:29;;;;;;;20.48;11.60;;;;;;;22.03;96.35;93156.66;2560216;23;20008;-84
2023/06/26 07:12:31;;;;;;;18.20;10.68;;;;;;;22.09;100.00;93152.72;2549335;23;20450;-84
2023/06/26 07:13:35;;;;;;;14.73;10.13;;;;;;;22.39;95.12;93146.94;2548612;23;20075;-82
2023/06/26 07:14:36;;;;;;;23.55;10.73;;;;;;;22.67;88.12;93149.69;2549111;23;20091;-84
2023/06/26 07:15:37;;;;;;;20.50;11.43;;;;;;;22.73;100.00;93150.44;2548004;23;20012;-85
2023/06/26 07:19:13;;;;;;;14.32;10.15;;;;;;;22.66;96.24;93163.84;2522353;23;20010;-84
2023/06/26 07:20:16;;;;;;;14.18;10.43;;;;;;;22.99;78.21;93163.16;2534756;23;20360;-83
2023/06/26 07:21:17;;;;;;;12.80;9.38;;;;;;;23.02;77.91;93157.44;2547145;23;20010;-85
2023/06/26 07:22:21;;;;;;;14.05;9.65;;;;;;;22.98;79.96;93161.66;2572018;23;20075;-85
2023/06/26 07:23:22;;;;;;;16.35;10.25;;;;;;;22.94;77.26;93158.44;2571499;23;20008;-83
2023/06/26 07:24:23;;;;;;;14.80;10.15;;;;;;;22.95;75.10;93160.66;2559596;23;20482;-86
2023/06/26 07:25:24;;;;;;;18.50;10.43;;;;;;;23.38;70.75;93161.16;2534414;23;20048;-86
2023/06/26 07:26:25;;;;;;;20.40;10.00;;;;;;;23.38;73.13;93157.69;2558209;23;20012;-83
2023/06/26 07:27:31;;;;;;;11.88;9.88;;;;;;;23.25;71.07;93162.91;2545202;23;20061;-82
2023/06/26 07:28:35;;;;;;;13.88;9.73;;;;;;;23.52;64.03;93169.59;2537241;23;20006;-85
2023/06/26 07:29:37;;;;;;;25.45;9.73;;;;;;;23.42;66.08;93171.09;2547107;23;20321;-82
2023/06/26 07:30:38;;;;;;;15.73;9.82;;;;;;;23.49;61.30;93176.06;2546796;23;20013;-85
2023/06/26 07:31:40;;;;;;;19.63;9.85;;;;;;;23.32;65.52;93178.78;2546371;23;20475;-85
2023/06/26 07:32:42;;;;;;;17.42;9.10;;;;;;;23.31;64.75;93171.81;2534299;23;20009;-83
2023/06/26 07:33:43;;;;;;;18.52;9.88;;;;;;;23.42;61.43;93171.09;2546443;23;20089;-85
2023/06/26 07:34:44;;;;;;;14.70;9.30;;;;;;;23.35;68.90;93167.63;2559027;23;20004;-83
2023/06/26 07:35:47;;;;;;;14.55;9.52;;;;;;;23.59;63.31;93171.81;2570750;23;20428;-84
2023/06/26 07:36:50;;;;;;;11.85;8.93;;;;;;;23.71;61.83;93175.31;2571229;23;20015;-84
2023/06/26 07:37:51;;;;;;;16.00;9.88;;;;;;;23.72;63.89;93177.53;2535789;23;20341;-84
2023/06/26 07:38:52;;;;;;;13.38;9.65;;;;;;;23.79;61.11;93181.72;2534210;23;20016;-83
2023/06/26 07:39:53;;;;;;;14.93;9.63;;;;;;;23.97;57.86;93167.56;2534376;23;20001;-83
2023/06/26 07:40:54;;;;;;;14.90;9.45;;;;;;;23.93;60.43;93167.06;2534596;23;20009;-83
2023/06/26 07:41:58;;;;;;;11.05;9.32;;;;;;;23.78;64.29;93169.31;2546209;23;20061;-83
2023/06/26 07:42:59;;;;;;;14.60;9.27;;;;;;;24.02;58.99;93174.25;2545166;23;20009;-84
2023/06/26 07:44:00;;;;;;;17.25;9.45;;;;;;;24.21;58.82;93172.44;2543824;23;19997;-85
2023/06/26 07:45:01;;;;;;;16.55;9.43;;;;;;;23.93;68.68;93164.34;2531573;23;20028;-84
2023/06/26 07:46:02;;;;;;;15.50;9.43;;;;;;;23.94;65.62;93174.00;2531750;23;20619;-83
2023/06/26 07:47:04;;;;;;;13.93;9.00;;;;;;;24.06;63.00;93178.19;2532267;23;20009;-84